sensor_id;sensor_type;location;lat;lon;timestamp;temperature;humidity
67502;SHT30;54349;52.528;19.760;2023-09-19T00:02:03;27.98;50.72
67502;SHT30;54349;52.528;19.760;2023-09-19T00:04:34;28.05;50.60
67502;SHT30;54349;52.528;19.760;2023-09-19T00:07:03;28.12;50.51
67502;SHT30;54349;52.528;19.760;2023-09-19T00:09:31;28.17;50.38
67502;SHT30;54349;52.528;19.760;2023-09-19T00:12:05;28.22;50.31
67502;SHT30;54349;52.528;19.760;2023-09-19T00:14:34;28.28;50.24
67502;SHT30;54349;52.528;19.760;2023-09-19T00:17:03;28.33;50.18
67502;SHT30;54349;52.528;19.760;2023-09-19T00:19:36;28.38;50.08
67502;SHT30;54349;52.528;19.760;2023-09-19T00:22:10;28.42;49.99
67502;SHT30;54349;52.528;19.760;2023-09-19T00:24:41;28.48;49.90
67502;SHT30;54349;52.528;19.760;2023-09-19T00:27:09;28.53;49.81
67502;SHT30;54349;52.528;19.760;2023-09-19T00:29:37;28.58;49.68
67502;SHT30;54349;52.528;19.760;2023-09-19T00:32:06;28.62;49.62
67502;SHT30;54349;52.528;19.760;2023-09-19T00:34:35;28.66;49.54
67502;SHT30;54349;52.528;19.760;2023-09-19T00:37:03;28.70;49.48
67502;SHT30;54349;52.528;19.760;2023-09-19T00:39:31;28.74;49.40
67502;SHT30;54349;52.528;19.760;2023-09-19T00:41:59;28.77;49.31
67502;SHT30;54349;52.528;19.760;2023-09-19T00:44:32;28.81;49.24
67502;SHT30;54349;52.528;19.760;2023-09-19T00:47:02;28.85;49.20
67502;SHT30;54349;52.528;19.760;2023-09-19T00:49:31;28.90;49.12
67502;SHT30;54349;52.528;19.760;2023-09-19T00:52:00;28.93;49.03
67502;SHT30;54349;52.528;19.760;2023-09-19T00:54:29;28.97;48.96
67502;SHT30;54349;52.528;19.760;2023-09-19T00:56:57;29.00;48.91
67502;SHT30;54349;52.528;19.760;2023-09-19T00:59:25;29.04;48.83
67502;SHT30;54349;52.528;19.760;2023-09-19T01:01:58;29.08;48.79
67502;SHT30;54349;52.528;19.760;2023-09-19T01:04:28;29.12;48.70
67502;SHT30;54349;52.528;19.760;2023-09-19T01:06:57;29.16;48.68
67502;SHT30;54349;52.528;19.760;2023-09-19T01:09:26;29.19;48.60
67502;SHT30;54349;52.528;19.760;2023-09-19T01:11:56;29.22;48.60
67502;SHT30;54349;52.528;19.760;2023-09-19T01:17:34;29.20;48.64
67502;SHT30;54349;52.528;19.760;2023-09-19T01:20:23;29.14;48.56
67502;SHT30;54349;52.528;19.760;2023-09-19T01:23:21;29.09;48.51
67502;SHT30;54349;52.528;19.760;2023-09-19T01:26:24;29.05;48.52
67502;SHT30;54349;52.528;19.760;2023-09-19T01:32:35;28.94;48.51
67502;SHT30;54349;52.528;19.760;2023-09-19T01:35:05;28.91;48.56
67502;SHT30;54349;52.528;19.760;2023-09-19T01:37:39;28.87;48.57
67502;SHT30;54349;52.528;19.760;2023-09-19T01:40:17;28.83;48.61
67502;SHT30;54349;52.528;19.760;2023-09-19T01:43:06;28.79;48.63
67502;SHT30;54349;52.528;19.760;2023-09-19T01:51:48;28.66;48.70
67502;SHT30;54349;52.528;19.760;2023-09-19T01:54:37;28.62;48.71
67502;SHT30;54349;52.528;19.760;2023-09-19T02:00:11;28.54;48.79
67502;SHT30;54349;52.528;19.760;2023-09-19T02:02:44;28.51;48.81
67502;SHT30;54349;52.528;19.760;2023-09-19T02:05:23;28.48;48.86
67502;SHT30;54349;52.528;19.760;2023-09-19T02:07:54;28.43;48.86
67502;SHT30;54349;52.528;19.760;2023-09-19T02:10:23;28.42;48.92
67502;SHT30;54349;52.528;19.760;2023-09-19T02:12:52;28.38;48.94
67502;SHT30;54349;52.528;19.760;2023-09-19T02:15:20;28.35;48.99
67502;SHT30;54349;52.528;19.760;2023-09-19T02:17:50;28.33;49.02
67502;SHT30;54349;52.528;19.760;2023-09-19T02:20:18;28.29;49.02
67502;SHT30;54349;52.528;19.760;2023-09-19T02:22:48;28.27;49.07
67502;SHT30;54349;52.528;19.760;2023-09-19T02:25:18;28.24;49.12
67502;SHT30;54349;52.528;19.760;2023-09-19T02:27:47;28.21;49.14
67502;SHT30;54349;52.528;19.760;2023-09-19T02:30:16;28.19;49.19
67502;SHT30;54349;52.528;19.760;2023-09-19T02:32:49;28.16;49.22
67502;SHT30;54349;52.528;19.760;2023-09-19T02:35:17;28.14;49.21
67502;SHT30;54349;52.528;19.760;2023-09-19T02:37:48;28.11;49.29
67502;SHT30;54349;52.528;19.760;2023-09-19T02:40:17;28.09;49.30
67502;SHT30;54349;52.528;19.760;2023-09-19T02:42:54;28.06;49.30
67502;SHT30;54349;52.528;19.760;2023-09-19T02:45:24;28.02;49.34
67502;SHT30;54349;52.528;19.760;2023-09-19T02:47:53;28.01;49.37
67502;SHT30;54349;52.528;19.760;2023-09-19T02:50:22;27.99;49.41
67502;SHT30;54349;52.528;19.760;2023-09-19T02:52:51;27.96;49.42
67502;SHT30;54349;52.528;19.760;2023-09-19T02:55:20;27.94;49.47
67502;SHT30;54349;52.528;19.760;2023-09-19T02:57:50;27.92;49.50
67502;SHT30;54349;52.528;19.760;2023-09-19T03:00:24;27.89;49.51
67502;SHT30;54349;52.528;19.760;2023-09-19T03:02:54;27.87;49.52
67502;SHT30;54349;52.528;19.760;2023-09-19T03:05:23;27.83;49.58
67502;SHT30;54349;52.528;19.760;2023-09-19T03:07:52;27.82;49.60
67502;SHT30;54349;52.528;19.760;2023-09-19T03:10:21;27.80;49.65
67502;SHT30;54349;52.528;19.760;2023-09-19T03:12:50;27.79;49.69
67502;SHT30;54349;52.528;19.760;2023-09-19T03:15:19;27.76;49.71
67502;SHT30;54349;52.528;19.760;2023-09-19T03:17:50;27.74;49.72
67502;SHT30;54349;52.528;19.760;2023-09-19T03:20:23;27.71;49.78
67502;SHT30;54349;52.528;19.760;2023-09-19T03:22:55;27.69;49.81
67502;SHT30;54349;52.528;19.760;2023-09-19T03:25:25;27.68;49.82
67502;SHT30;54349;52.528;19.760;2023-09-19T03:27:55;27.66;49.87
67502;SHT30;54349;52.528;19.760;2023-09-19T03:30:26;27.64;49.89
67502;SHT30;54349;52.528;19.760;2023-09-19T03:32:55;27.62;49.91
67502;SHT30;54349;52.528;19.760;2023-09-19T03:35:24;27.60;49.96
67502;SHT30;54349;52.528;19.760;2023-09-19T03:37:52;27.58;49.96
67502;SHT30;54349;52.528;19.760;2023-09-19T03:40:21;27.57;50.00
67502;SHT30;54349;52.528;19.760;2023-09-19T03:42:51;27.56;50.02
67502;SHT30;54349;52.528;19.760;2023-09-19T03:45:19;27.54;50.03
67502;SHT30;54349;52.528;19.760;2023-09-19T03:47:50;27.52;50.09
67502;SHT30;54349;52.528;19.760;2023-09-19T03:50:20;27.50;50.12
67502;SHT30;54349;52.528;19.760;2023-09-19T03:52:49;27.48;50.12
67502;SHT30;54349;52.528;19.760;2023-09-19T03:55:17;27.47;50.16
67502;SHT30;54349;52.528;19.760;2023-09-19T03:57:47;27.45;50.20
67502;SHT30;54349;52.528;19.760;2023-09-19T04:00:17;27.43;50.20
67502;SHT30;54349;52.528;19.760;2023-09-19T04:02:51;27.42;50.21
67502;SHT30;54349;52.528;19.760;2023-09-19T04:05:21;27.40;50.24
67502;SHT30;54349;52.528;19.760;2023-09-19T04:07:49;27.38;50.29
67502;SHT30;54349;52.528;19.760;2023-09-19T04:10:18;27.38;50.30
67502;SHT30;54349;52.528;19.760;2023-09-19T04:12:51;27.35;50.33
67502;SHT30;54349;52.528;19.760;2023-09-19T04:15:23;27.35;50.35
67502;SHT30;54349;52.528;19.760;2023-09-19T04:17:55;27.33;50.39
67502;SHT30;54349;52.528;19.760;2023-09-19T04:20:24;27.31;50.40
67502;SHT30;54349;52.528;19.760;2023-09-19T04:22:52;27.30;50.43
67502;SHT30;54349;52.528;19.760;2023-09-19T04:25:21;27.29;50.47
67502;SHT30;54349;52.528;19.760;2023-09-19T04:27:49;27.27;50.46
67502;SHT30;54349;52.528;19.760;2023-09-19T04:30:17;27.26;50.49
67502;SHT30;54349;52.528;19.760;2023-09-19T04:32:45;27.25;50.49
67502;SHT30;54349;52.528;19.760;2023-09-19T04:35:19;27.23;50.50
67502;SHT30;54349;52.528;19.760;2023-09-19T04:37:48;27.22;50.52
67502;SHT30;54349;52.528;19.760;2023-09-19T04:40:18;27.20;50.58
67502;SHT30;54349;52.528;19.760;2023-09-19T04:42:53;27.20;50.57
67502;SHT30;54349;52.528;19.760;2023-09-19T04:45:26;27.18;50.59
67502;SHT30;54349;52.528;19.760;2023-09-19T04:47:58;27.17;50.60
67502;SHT30;54349;52.528;19.760;2023-09-19T04:50:27;27.16;50.62
67502;SHT30;54349;52.528;19.760;2023-09-19T04:52:56;27.14;50.63
67502;SHT30;54349;52.528;19.760;2023-09-19T04:55:24;27.14;50.66
67502;SHT30;54349;52.528;19.760;2023-09-19T04:57:58;27.12;50.69
67502;SHT30;54349;52.528;19.760;2023-09-19T05:00:29;27.12;50.71
67502;SHT30;54349;52.528;19.760;2023-09-19T05:02:59;27.10;50.71
67502;SHT30;54349;52.528;19.760;2023-09-19T05:05:31;27.09;50.73
67502;SHT30;54349;52.528;19.760;2023-09-19T05:08:05;27.08;50.76
67502;SHT30;54349;52.528;19.760;2023-09-19T05:10:38;27.08;50.81
67502;SHT30;54349;52.528;19.760;2023-09-19T05:13:07;27.08;50.84
67502;SHT30;54349;52.528;19.760;2023-09-19T05:15:38;27.07;50.90
67502;SHT30;54349;52.528;19.760;2023-09-19T05:18:07;27.06;50.90
67502;SHT30;54349;52.528;19.760;2023-09-19T05:20:38;27.05;50.95
67502;SHT30;54349;52.528;19.760;2023-09-19T05:23:10;27.05;50.98
67502;SHT30;54349;52.528;19.760;2023-09-19T05:25:40;27.05;51.00
67502;SHT30;54349;52.528;19.760;2023-09-19T05:28:10;27.04;50.99
67502;SHT30;54349;52.528;19.760;2023-09-19T05:30:43;27.04;51.00
67502;SHT30;54349;52.528;19.760;2023-09-19T05:33:15;27.02;51.01
67502;SHT30;54349;52.528;19.760;2023-09-19T05:35:47;27.02;51.00
67502;SHT30;54349;52.528;19.760;2023-09-19T05:38:17;27.01;51.02
67502;SHT30;54349;52.528;19.760;2023-09-19T05:40:48;27.00;51.00
67502;SHT30;54349;52.528;19.760;2023-09-19T05:43:16;27.00;51.08
67502;SHT30;54349;52.528;19.760;2023-09-19T05:45:46;26.99;51.15
67502;SHT30;54349;52.528;19.760;2023-09-19T05:48:18;26.98;51.16
67502;SHT30;54349;52.528;19.760;2023-09-19T05:50:49;26.97;51.19
67502;SHT30;54349;52.528;19.760;2023-09-19T05:53:19;26.96;51.41
67502;SHT30;54349;52.528;19.760;2023-09-19T05:55:47;26.95;51.34
67502;SHT30;54349;52.528;19.760;2023-09-19T05:58:17;26.95;51.30
67502;SHT30;54349;52.528;19.760;2023-09-19T06:00:46;26.94;51.30
67502;SHT30;54349;52.528;19.760;2023-09-19T06:03:16;26.91;51.50
67502;SHT30;54349;52.528;19.760;2023-09-19T06:05:47;26.89;51.70
67502;SHT30;54349;52.528;19.760;2023-09-19T06:08:18;26.88;51.77
67502;SHT30;54349;52.528;19.760;2023-09-19T06:10:46;26.86;51.81
67502;SHT30;54349;52.528;19.760;2023-09-19T06:13:18;26.85;51.88
67502;SHT30;54349;52.528;19.760;2023-09-19T06:15:50;26.84;51.96
67502;SHT30;54349;52.528;19.760;2023-09-19T06:18:21;26.82;52.00
67502;SHT30;54349;52.528;19.760;2023-09-19T06:21:01;26.81;52.00
67502;SHT30;54349;52.528;19.760;2023-09-19T06:23:37;26.80;52.06
67502;SHT30;54349;52.528;19.760;2023-09-19T06:26:07;26.80;52.07
67502;SHT30;54349;52.528;19.760;2023-09-19T06:28:36;26.80;52.13
67502;SHT30;54349;52.528;19.760;2023-09-19T06:31:04;26.80;52.18
67502;SHT30;54349;52.528;19.760;2023-09-19T06:33:38;26.80;52.28
67502;SHT30;54349;52.528;19.760;2023-09-19T06:36:07;26.81;52.32
67502;SHT30;54349;52.528;19.760;2023-09-19T06:38:36;26.80;52.32
67502;SHT30;54349;52.528;19.760;2023-09-19T06:41:07;26.80;52.39
67502;SHT30;54349;52.528;19.760;2023-09-19T06:43:38;26.81;52.47
67502;SHT30;54349;52.528;19.760;2023-09-19T06:46:08;26.81;52.49
67502;SHT30;54349;52.528;19.760;2023-09-19T06:48:42;26.82;52.49
67502;SHT30;54349;52.528;19.760;2023-09-19T06:51:13;26.82;52.58
67502;SHT30;54349;52.528;19.760;2023-09-19T06:53:46;26.83;52.60
67502;SHT30;54349;52.528;19.760;2023-09-19T06:56:15;26.84;52.57
67502;SHT30;54349;52.528;19.760;2023-09-19T06:58:44;26.84;52.58
67502;SHT30;54349;52.528;19.760;2023-09-19T07:01:13;26.85;52.61
67502;SHT30;54349;52.528;19.760;2023-09-19T07:03:41;26.85;52.63
67502;SHT30;54349;52.528;19.760;2023-09-19T07:06:13;26.86;52.69
67502;SHT30;54349;52.528;19.760;2023-09-19T07:08:42;26.87;52.69
67502;SHT30;54349;52.528;19.760;2023-09-19T07:11:11;26.87;52.68
67502;SHT30;54349;52.528;19.760;2023-09-19T07:13:41;26.88;52.72
67502;SHT30;54349;52.528;19.760;2023-09-19T07:16:10;26.89;52.74
67502;SHT30;54349;52.528;19.760;2023-09-19T07:18:57;26.88;52.80
67502;SHT30;54349;52.528;19.760;2023-09-19T07:21:25;26.89;52.79
67502;SHT30;54349;52.528;19.760;2023-09-19T07:23:54;26.89;52.86
67502;SHT30;54349;52.528;19.760;2023-09-19T07:26:22;26.89;52.88
67502;SHT30;54349;52.528;19.760;2023-09-19T07:28:49;26.89;52.90
67502;SHT30;54349;52.528;19.760;2023-09-19T07:31:18;26.90;52.93
67502;SHT30;54349;52.528;19.760;2023-09-19T07:33:46;26.90;52.97
67502;SHT30;54349;52.528;19.760;2023-09-19T07:36:14;26.91;52.95
67502;SHT30;54349;52.528;19.760;2023-09-19T07:38:43;26.90;52.99
67502;SHT30;54349;52.528;19.760;2023-09-19T07:41:11;26.91;53.04
67502;SHT30;54349;52.528;19.760;2023-09-19T07:43:40;26.91;53.04
67502;SHT30;54349;52.528;19.760;2023-09-19T07:46:11;26.91;53.09
67502;SHT30;54349;52.528;19.760;2023-09-19T07:48:41;26.92;53.08
67502;SHT30;54349;52.528;19.760;2023-09-19T07:51:15;26.93;53.12
67502;SHT30;54349;52.528;19.760;2023-09-19T07:53:45;26.92;53.06
67502;SHT30;54349;52.528;19.760;2023-09-19T07:56:14;26.93;53.36
67502;SHT30;54349;52.528;19.760;2023-09-19T07:58:42;26.94;53.28
67502;SHT30;54349;52.528;19.760;2023-09-19T08:01:13;26.95;53.20
67502;SHT30;54349;52.528;19.760;2023-09-19T08:03:42;26.95;53.20
67502;SHT30;54349;52.528;19.760;2023-09-19T08:06:11;26.95;53.19
67502;SHT30;54349;52.528;19.760;2023-09-19T08:08:42;26.95;53.20
67502;SHT30;54349;52.528;19.760;2023-09-19T08:11:10;26.97;53.17
67502;SHT30;54349;52.528;19.760;2023-09-19T08:13:40;26.95;53.20
67502;SHT30;54349;52.528;19.760;2023-09-19T08:16:13;26.96;53.22
67502;SHT30;54349;52.528;19.760;2023-09-19T08:18:46;26.96;53.21
67502;SHT30;54349;52.528;19.760;2023-09-19T08:21:16;26.97;53.20
67502;SHT30;54349;52.528;19.760;2023-09-19T08:23:44;26.98;53.22
67502;SHT30;54349;52.528;19.760;2023-09-19T08:26:13;26.97;53.21
67502;SHT30;54349;52.528;19.760;2023-09-19T08:28:41;26.98;53.20
67502;SHT30;54349;52.528;19.760;2023-09-19T08:31:10;26.99;53.20
67502;SHT30;54349;52.528;19.760;2023-09-19T08:33:38;26.99;53.20
67502;SHT30;54349;52.528;19.760;2023-09-19T08:36:08;26.99;53.20
67502;SHT30;54349;52.528;19.760;2023-09-19T08:38:37;27.00;53.25
67502;SHT30;54349;52.528;19.760;2023-09-19T08:41:06;27.01;53.27
67502;SHT30;54349;52.528;19.760;2023-09-19T08:43:36;27.01;53.25
67502;SHT30;54349;52.528;19.760;2023-09-19T08:48:33;27.02;53.27
67502;SHT30;54349;52.528;19.760;2023-09-19T08:51:07;27.05;53.29
67502;SHT30;54349;52.528;19.760;2023-09-19T08:54:03;27.04;53.30
67502;SHT30;54349;52.528;19.760;2023-09-19T08:56:35;27.05;53.31
67502;SHT30;54349;52.528;19.760;2023-09-19T08:59:07;27.06;53.33
67502;SHT30;54349;52.528;19.760;2023-09-19T09:01:36;27.06;53.36
67502;SHT30;54349;52.528;19.760;2023-09-19T09:04:09;27.07;53.36
67502;SHT30;54349;52.528;19.760;2023-09-19T09:06:41;27.08;53.31
67502;SHT30;54349;52.528;19.760;2023-09-19T09:09:12;27.07;53.37
67502;SHT30;54349;52.528;19.760;2023-09-19T09:11:41;27.08;53.34
67502;SHT30;54349;52.528;19.760;2023-09-19T09:14:09;27.10;53.40
67502;SHT30;54349;52.528;19.760;2023-09-19T09:16:39;27.11;53.41
67502;SHT30;54349;52.528;19.760;2023-09-19T09:19:09;27.11;53.49
67502;SHT30;54349;52.528;19.760;2023-09-19T09:21:39;27.13;53.54
67502;SHT30;54349;52.528;19.760;2023-09-19T09:24:31;27.15;53.66
67502;SHT30;54349;52.528;19.760;2023-09-19T09:27:06;27.19;53.51
67502;SHT30;54349;52.528;19.760;2023-09-19T09:29:40;27.24;53.42
67502;SHT30;54349;52.528;19.760;2023-09-19T09:34:58;27.30;53.30
67502;SHT30;54349;52.528;19.760;2023-09-19T09:37:29;27.34;53.30
67502;SHT30;54349;52.528;19.760;2023-09-19T09:39:59;27.37;53.24
67502;SHT30;54349;52.528;19.760;2023-09-19T09:42:41;27.40;53.18
67502;SHT30;54349;52.528;19.760;2023-09-19T09:45:23;27.42;53.18
67502;SHT30;54349;52.528;19.760;2023-09-19T09:48:02;27.45;53.24
67502;SHT30;54349;52.528;19.760;2023-09-19T09:50:48;27.46;53.13
67502;SHT30;54349;52.528;19.760;2023-09-19T09:53:27;27.48;53.06
67502;SHT30;54349;52.528;19.760;2023-09-19T09:58:58;27.53;53.06
67502;SHT30;54349;52.528;19.760;2023-09-19T10:01:27;27.53;52.98
67502;SHT30;54349;52.528;19.760;2023-09-19T10:03:59;27.55;52.91
67502;SHT30;54349;52.528;19.760;2023-09-19T10:06:39;27.57;52.90
67502;SHT30;54349;52.528;19.760;2023-09-19T10:09:15;27.59;52.83
67502;SHT30;54349;52.528;19.760;2023-09-19T10:11:49;27.60;52.82
67502;SHT30;54349;52.528;19.760;2023-09-19T10:14:37;27.63;52.79
67502;SHT30;54349;52.528;19.760;2023-09-19T10:17:12;27.65;52.75
67502;SHT30;54349;52.528;19.760;2023-09-19T10:19:54;27.66;52.72
67502;SHT30;54349;52.528;19.760;2023-09-19T10:22:27;27.68;52.73
67502;SHT30;54349;52.528;19.760;2023-09-19T10:25:00;27.69;52.87
67502;SHT30;54349;52.528;19.760;2023-09-19T10:27:32;27.71;52.85
67502;SHT30;54349;52.528;19.760;2023-09-19T10:30:05;27.72;52.85
67502;SHT30;54349;52.528;19.760;2023-09-19T10:32:38;27.73;52.81
67502;SHT30;54349;52.528;19.760;2023-09-19T10:35:10;27.75;52.77
67502;SHT30;54349;52.528;19.760;2023-09-19T10:37:41;27.76;52.72
67502;SHT30;54349;52.528;19.760;2023-09-19T10:40:17;27.76;52.73
67502;SHT30;54349;52.528;19.760;2023-09-19T10:42:48;27.77;52.72
67502;SHT30;54349;52.528;19.760;2023-09-19T10:45:18;27.79;52.70
67502;SHT30;54349;52.528;19.760;2023-09-19T10:47:51;27.80;52.63
67502;SHT30;54349;52.528;19.760;2023-09-19T10:50:22;27.81;52.59
67502;SHT30;54349;52.528;19.760;2023-09-19T10:53:13;27.83;52.51
67502;SHT30;54349;52.528;19.760;2023-09-19T10:55:48;27.84;52.57
67502;SHT30;54349;52.528;19.760;2023-09-19T10:58:26;27.86;52.51
67502;SHT30;54349;52.528;19.760;2023-09-19T11:00:57;27.89;52.52
67502;SHT30;54349;52.528;19.760;2023-09-19T11:03:46;27.90;52.48
67502;SHT30;54349;52.528;19.760;2023-09-19T11:06:17;27.91;52.62
67502;SHT30;54349;52.528;19.760;2023-09-19T11:08:55;27.92;52.54
67502;SHT30;54349;52.528;19.760;2023-09-19T11:11:50;27.94;52.54
67502;SHT30;54349;52.528;19.760;2023-09-19T11:17:29;27.93;52.55
67502;SHT30;54349;52.528;19.760;2023-09-19T11:30:37;27.98;52.59
67502;SHT30;54349;52.528;19.760;2023-09-19T11:36:05;27.93;52.48
67502;SHT30;54349;52.528;19.760;2023-09-19T11:43:53;27.92;52.80
67502;SHT30;54349;52.528;19.760;2023-09-19T11:49:23;27.94;52.69
67502;SHT30;54349;52.528;19.760;2023-09-19T11:52:00;27.95;52.60
67502;SHT30;54349;52.528;19.760;2023-09-19T11:54:32;27.99;52.54
67502;SHT30;54349;52.528;19.760;2023-09-19T11:57:01;28.01;52.52
67502;SHT30;54349;52.528;19.760;2023-09-19T11:59:30;28.05;52.57
67502;SHT30;54349;52.528;19.760;2023-09-19T12:02:04;28.07;52.47
67502;SHT30;54349;52.528;19.760;2023-09-19T12:07:11;28.13;52.28
67502;SHT30;54349;52.528;19.760;2023-09-19T12:09:45;28.15;52.23
67502;SHT30;54349;52.528;19.760;2023-09-19T12:14:55;28.19;52.21
67502;SHT30;54349;52.528;19.760;2023-09-19T12:20:07;28.23;52.17
67502;SHT30;54349;52.528;19.760;2023-09-19T12:22:44;28.24;52.13
67502;SHT30;54349;52.528;19.760;2023-09-19T12:25:15;28.25;52.08
67502;SHT30;54349;52.528;19.760;2023-09-19T12:27:48;28.26;51.92
67502;SHT30;54349;52.528;19.760;2023-09-19T12:30:27;28.27;51.90
67502;SHT30;54349;52.528;19.760;2023-09-19T12:32:56;28.30;51.94
67502;SHT30;54349;52.528;19.760;2023-09-19T12:35:30;28.33;51.94
67502;SHT30;54349;52.528;19.760;2023-09-19T12:38:03;28.35;51.87
67502;SHT30;54349;52.528;19.760;2023-09-19T12:40:32;28.36;51.79
67502;SHT30;54349;52.528;19.760;2023-09-19T12:43:03;28.40;51.71
67502;SHT30;54349;52.528;19.760;2023-09-19T12:45:33;28.41;51.70
67502;SHT30;54349;52.528;19.760;2023-09-19T12:51:04;28.45;51.49
67502;SHT30;54349;52.528;19.760;2023-09-19T12:56:12;28.50;51.34
67502;SHT30;54349;52.528;19.760;2023-09-19T12:58:57;28.51;51.25
67502;SHT30;54349;52.528;19.760;2023-09-19T13:01:30;28.54;51.21
67502;SHT30;54349;52.528;19.760;2023-09-19T13:06:49;28.59;51.03
67502;SHT30;54349;52.528;19.760;2023-09-19T13:09:20;28.62;50.99
67502;SHT30;54349;52.528;19.760;2023-09-19T13:11:56;28.63;50.91
67502;SHT30;54349;52.528;19.760;2023-09-19T13:14:30;28.64;50.90
67502;SHT30;54349;52.528;19.760;2023-09-19T13:17:22;28.67;50.79
67502;SHT30;54349;52.528;19.760;2023-09-19T13:19:52;28.67;50.74
67502;SHT30;54349;52.528;19.760;2023-09-19T13:22:44;28.69;50.60
67502;SHT30;54349;52.528;19.760;2023-09-19T13:25:27;28.70;50.60
67502;SHT30;54349;52.528;19.760;2023-09-19T13:28:00;28.70;50.53
67502;SHT30;54349;52.528;19.760;2023-09-19T13:30:32;28.71;50.44
67502;SHT30;54349;52.528;19.760;2023-09-19T13:33:10;28.71;50.35
67502;SHT30;54349;52.528;19.760;2023-09-19T13:35:41;28.72;50.40
67502;SHT30;54349;52.528;19.760;2023-09-19T13:38:09;28.72;50.34
67502;SHT30;54349;52.528;19.760;2023-09-19T13:40:39;28.74;50.23
67502;SHT30;54349;52.528;19.760;2023-09-19T13:43:10;28.76;50.10
67502;SHT30;54349;52.528;19.760;2023-09-19T13:45:39;28.77;50.11
67502;SHT30;54349;52.528;19.760;2023-09-19T13:48:11;28.77;50.06
67502;SHT30;54349;52.528;19.760;2023-09-19T13:50:40;28.77;50.01
67502;SHT30;54349;52.528;19.760;2023-09-19T13:53:10;28.75;49.88
67502;SHT30;54349;52.528;19.760;2023-09-19T13:55:39;28.73;49.85
67502;SHT30;54349;52.528;19.760;2023-09-19T13:58:08;28.72;49.88
67502;SHT30;54349;52.528;19.760;2023-09-19T14:00:39;28.70;49.95
67502;SHT30;54349;52.528;19.760;2023-09-19T14:03:07;28.68;50.01
67502;SHT30;54349;52.528;19.760;2023-09-19T14:05:37;28.66;50.11
67502;SHT30;54349;52.528;19.760;2023-09-19T14:08:05;28.65;50.18
67502;SHT30;54349;52.528;19.760;2023-09-19T14:10:33;28.64;50.23
67502;SHT30;54349;52.528;19.760;2023-09-19T14:13:02;28.63;50.29
67502;SHT30;54349;52.528;19.760;2023-09-19T14:15:32;28.63;50.38
67502;SHT30;54349;52.528;19.760;2023-09-19T14:18:02;28.61;50.40
67502;SHT30;54349;52.528;19.760;2023-09-19T14:20:31;28.59;50.39
67502;SHT30;54349;52.528;19.760;2023-09-19T14:22:59;28.57;50.40
67502;SHT30;54349;52.528;19.760;2023-09-19T14:25:28;28.55;50.38
67502;SHT30;54349;52.528;19.760;2023-09-19T14:27:58;28.52;50.34
67502;SHT30;54349;52.528;19.760;2023-09-19T14:30:26;28.49;50.23
67502;SHT30;54349;52.528;19.760;2023-09-19T14:32:55;28.48;50.17
67502;SHT30;54349;52.528;19.760;2023-09-19T14:35:26;28.48;50.02
67502;SHT30;54349;52.528;19.760;2023-09-19T14:37:54;28.45;49.85
67502;SHT30;54349;52.528;19.760;2023-09-19T14:40:23;28.44;49.69
67502;SHT30;54349;52.528;19.760;2023-09-19T14:42:53;28.44;49.62
67502;SHT30;54349;52.528;19.760;2023-09-19T14:45:22;28.43;49.56
67502;SHT30;54349;52.528;19.760;2023-09-19T14:47:53;28.42;49.59
67502;SHT30;54349;52.528;19.760;2023-09-19T14:50:24;28.43;49.61
67502;SHT30;54349;52.528;19.760;2023-09-19T14:52:54;28.41;49.54
67502;SHT30;54349;52.528;19.760;2023-09-19T14:55:22;28.39;49.51
67502;SHT30;54349;52.528;19.760;2023-09-19T14:57:51;28.38;49.46
67502;SHT30;54349;52.528;19.760;2023-09-19T15:00:19;28.36;49.33
67502;SHT30;54349;52.528;19.760;2023-09-19T15:02:49;28.36;49.25
67502;SHT30;54349;52.528;19.760;2023-09-19T15:05:18;28.35;49.14
67502;SHT30;54349;52.528;19.760;2023-09-19T15:07:47;28.34;49.07
67502;SHT30;54349;52.528;19.760;2023-09-19T15:10:15;28.33;48.97
67502;SHT30;54349;52.528;19.760;2023-09-19T15:12:46;28.33;48.81
67502;SHT30;54349;52.528;19.760;2023-09-19T15:15:14;28.32;48.70
67502;SHT30;54349;52.528;19.760;2023-09-19T15:17:43;28.31;48.59
67502;SHT30;54349;52.528;19.760;2023-09-19T15:20:11;28.30;48.42
67502;SHT30;54349;52.528;19.760;2023-09-19T15:22:42;28.29;48.33
67502;SHT30;54349;52.528;19.760;2023-09-19T15:25:10;28.28;48.24
67502;SHT30;54349;52.528;19.760;2023-09-19T15:27:39;28.27;48.17
67502;SHT30;54349;52.528;19.760;2023-09-19T15:30:09;28.24;48.09
67502;SHT30;54349;52.528;19.760;2023-09-19T15:32:38;28.23;48.00
67502;SHT30;54349;52.528;19.760;2023-09-19T15:35:07;28.22;48.04
67502;SHT30;54349;52.528;19.760;2023-09-19T15:37:37;28.20;48.05
67502;SHT30;54349;52.528;19.760;2023-09-19T15:40:06;28.19;47.98
67502;SHT30;54349;52.528;19.760;2023-09-19T15:42:38;28.18;47.91
67502;SHT30;54349;52.528;19.760;2023-09-19T15:45:06;28.15;47.82
67502;SHT30;54349;52.528;19.760;2023-09-19T15:47:37;28.15;47.75
67502;SHT30;54349;52.528;19.760;2023-09-19T15:50:06;28.13;47.78
67502;SHT30;54349;52.528;19.760;2023-09-19T15:52:38;28.12;47.72
67502;SHT30;54349;52.528;19.760;2023-09-19T15:55:08;28.11;47.74
67502;SHT30;54349;52.528;19.760;2023-09-19T15:57:37;28.09;47.75
67502;SHT30;54349;52.528;19.760;2023-09-19T16:00:06;28.09;47.78
67502;SHT30;54349;52.528;19.760;2023-09-19T16:02:38;28.07;47.81
67502;SHT30;54349;52.528;19.760;2023-09-19T16:05:07;28.05;47.78
67502;SHT30;54349;52.528;19.760;2023-09-19T16:07:40;28.04;47.68
67502;SHT30;54349;52.528;19.760;2023-09-19T16:10:08;28.02;47.66
67502;SHT30;54349;52.528;19.760;2023-09-19T16:12:37;28.01;47.60
67502;SHT30;54349;52.528;19.760;2023-09-19T16:15:05;28.00;47.60
67502;SHT30;54349;52.528;19.760;2023-09-19T16:17:39;27.98;47.61
67502;SHT30;54349;52.528;19.760;2023-09-19T16:20:08;27.97;47.54
67502;SHT30;54349;52.528;19.760;2023-09-19T16:22:40;27.95;47.53
67502;SHT30;54349;52.528;19.760;2023-09-19T16:25:09;27.93;47.52
67502;SHT30;54349;52.528;19.760;2023-09-19T16:27:39;27.93;47.48
67502;SHT30;54349;52.528;19.760;2023-09-19T16:30:08;27.91;47.45
67502;SHT30;54349;52.528;19.760;2023-09-19T16:32:37;27.89;47.47
67502;SHT30;54349;52.528;19.760;2023-09-19T16:35:06;27.88;47.46
67502;SHT30;54349;52.528;19.760;2023-09-19T16:37:37;27.86;47.42
67502;SHT30;54349;52.528;19.760;2023-09-19T16:40:06;27.84;47.42
67502;SHT30;54349;52.528;19.760;2023-09-19T16:42:36;27.83;47.43
67502;SHT30;54349;52.528;19.760;2023-09-19T16:45:07;27.81;47.43
67502;SHT30;54349;52.528;19.760;2023-09-19T16:47:38;27.80;47.40